sensor_id;sensor_type;location;lat;lon;timestamp;temperature;humidity
21762;DHT22;11203;50.870;20.682;2023-03-03T00:01:11;-0.80;1.00
21762;DHT22;11203;50.870;20.682;2023-03-03T00:03:37;-0.80;1.00
21762;DHT22;11203;50.870;20.682;2023-03-03T00:06:04;-0.80;1.00
21762;DHT22;11203;50.870;20.682;2023-03-03T00:08:31;-0.90;1.00
21762;DHT22;11203;50.870;20.682;2023-03-03T00:10:59;-1.00;1.00
21762;DHT22;11203;50.870;20.682;2023-03-03T00:13:26;-1.00;1.00
21762;DHT22;11203;50.870;20.682;2023-03-03T00:18:56;-1.20;1.00
21762;DHT22;11203;50.870;20.682;2023-03-03T00:21:43;-1.10;1.00
21762;DHT22;11203;50.870;20.682;2023-03-03T00:27:02;-1.40;99.90
21762;DHT22;11203;50.870;20.682;2023-03-03T00:29:45;-1.40;99.90
21762;DHT22;11203;50.870;20.682;2023-03-03T00:34:44;-1.50;99.90
21762;DHT22;11203;50.870;20.682;2023-03-03T00:37:30;-1.50;1.00
21762;DHT22;11203;50.870;20.682;2023-03-03T00:42:53;-1.40;1.00
21762;DHT22;11203;50.870;20.682;2023-03-03T00:48:22;-1.20;99.90
21762;DHT22;11203;50.870;20.682;2023-03-03T00:51:06;-1.20;99.90
21762;DHT22;11203;50.870;20.682;2023-03-03T00:53:48;-1.10;99.90
21762;DHT22;11203;50.870;20.682;2023-03-03T00:56:15;-0.90;1.00
21762;DHT22;11203;50.870;20.682;2023-03-03T00:58:41;-1.00;1.00
21762;DHT22;11203;50.870;20.682;2023-03-03T01:01:10;-0.90;99.90
21762;DHT22;11203;50.870;20.682;2023-03-03T01:03:36;-1.00;99.90
21762;DHT22;11203;50.870;20.682;2023-03-03T01:06:02;-0.90;1.00
21762;DHT22;11203;50.870;20.682;2023-03-03T01:08:29;-0.90;1.00
21762;DHT22;11203;50.870;20.682;2023-03-03T01:10:57;-0.80;1.00
21762;DHT22;11203;50.870;20.682;2023-03-03T01:13:27;-0.80;1.00
21762;DHT22;11203;50.870;20.682;2023-03-03T01:15:56;-0.80;1.00
21762;DHT22;11203;50.870;20.682;2023-03-03T01:18:24;-0.80;1.00
21762;DHT22;11203;50.870;20.682;2023-03-03T01:20:51;-0.70;1.00
21762;DHT22;11203;50.870;20.682;2023-03-03T01:23:17;-0.60;1.00
21762;DHT22;11203;50.870;20.682;2023-03-03T01:25:43;-0.70;1.00
21762;DHT22;11203;50.870;20.682;2023-03-03T01:28:09;-0.70;1.00
21762;DHT22;11203;50.870;20.682;2023-03-03T01:30:36;-0.70;1.00
21762;DHT22;11203;50.870;20.682;2023-03-03T01:33:02;-0.70;1.00
21762;DHT22;11203;50.870;20.682;2023-03-03T01:35:29;-0.60;1.00
21762;DHT22;11203;50.870;20.682;2023-03-03T01:37:55;-0.60;1.00
21762;DHT22;11203;50.870;20.682;2023-03-03T01:40:24;-0.50;1.00
21762;DHT22;11203;50.870;20.682;2023-03-03T01:42:52;-0.50;1.00
21762;DHT22;11203;50.870;20.682;2023-03-03T01:45:27;-0.60;1.00
21762;DHT22;11203;50.870;20.682;2023-03-03T01:48:04;-0.50;1.00
21762;DHT22;11203;50.870;20.682;2023-03-03T01:50:54;-0.50;1.00
21762;DHT22;11203;50.870;20.682;2023-03-03T01:56:20;-0.40;1.00
21762;DHT22;11203;50.870;20.682;2023-03-03T01:58:50;-0.40;99.90
21762;DHT22;11203;50.870;20.682;2023-03-03T02:01:22;-0.50;1.00
21762;DHT22;11203;50.870;20.682;2023-03-03T02:03:52;-0.50;1.00
21762;DHT22;11203;50.870;20.682;2023-03-03T02:06:24;-0.50;1.00
21762;DHT22;11203;50.870;20.682;2023-03-03T02:09:20;-0.40;1.00
21762;DHT22;11203;50.870;20.682;2023-03-03T02:11:52;-0.40;1.00
21762;DHT22;11203;50.870;20.682;2023-03-03T02:14:20;-0.40;1.00
21762;DHT22;11203;50.870;20.682;2023-03-03T02:16:46;-0.40;99.90
21762;DHT22;11203;50.870;20.682;2023-03-03T02:22:23;-0.60;1.00
21762;DHT22;11203;50.870;20.682;2023-03-03T02:24:59;-0.50;1.00
21762;DHT22;11203;50.870;20.682;2023-03-03T02:27:28;-0.40;1.00
21762;DHT22;11203;50.870;20.682;2023-03-03T02:29:56;-0.40;1.00
21762;DHT22;11203;50.870;20.682;2023-03-03T02:32:23;-0.40;1.00
21762;DHT22;11203;50.870;20.682;2023-03-03T02:34:50;-0.40;1.00
21762;DHT22;11203;50.870;20.682;2023-03-03T02:37:18;-0.40;1.00
21762;DHT22;11203;50.870;20.682;2023-03-03T02:39:45;-0.50;99.90
21762;DHT22;11203;50.870;20.682;2023-03-03T02:42:20;-0.50;1.00
21762;DHT22;11203;50.870;20.682;2023-03-03T02:44:48;-0.40;1.00
21762;DHT22;11203;50.870;20.682;2023-03-03T02:47:15;-0.30;1.00
21762;DHT22;11203;50.870;20.682;2023-03-03T02:49:41;-0.30;1.00
21762;DHT22;11203;50.870;20.682;2023-03-03T02:52:10;-0.20;1.00
21762;DHT22;11203;50.870;20.682;2023-03-03T02:54:37;-0.30;1.00
21762;DHT22;11203;50.870;20.682;2023-03-03T02:57:04;-0.30;1.00
21762;DHT22;11203;50.870;20.682;2023-03-03T02:59:31;-0.30;1.00
21762;DHT22;11203;50.870;20.682;2023-03-03T03:01:57;-0.20;1.00
21762;DHT22;11203;50.870;20.682;2023-03-03T03:04:26;-0.10;1.00
21762;DHT22;11203;50.870;20.682;2023-03-03T03:06:53;-0.10;1.00
21762;DHT22;11203;50.870;20.682;2023-03-03T03:09:21;-0.10;99.90
21762;DHT22;11203;50.870;20.682;2023-03-03T03:11:49;-0.10;99.90
21762;DHT22;11203;50.870;20.682;2023-03-03T03:14:15;0.00;99.90
21762;DHT22;11203;50.870;20.682;2023-03-03T03:16:41;-0.10;99.90
21762;DHT22;11203;50.870;20.682;2023-03-03T03:19:08;0.00;99.90
21762;DHT22;11203;50.870;20.682;2023-03-03T03:21:34;-0.10;99.90
21762;DHT22;11203;50.870;20.682;2023-03-03T03:24:00;0.00;99.90
21762;DHT22;11203;50.870;20.682;2023-03-03T03:26:26;-0.10;99.90
21762;DHT22;11203;50.870;20.682;2023-03-03T03:28:53;-0.10;99.90
21762;DHT22;11203;50.870;20.682;2023-03-03T03:31:20;0.00;99.90
21762;DHT22;11203;50.870;20.682;2023-03-03T03:33:46;-0.10;99.90
21762;DHT22;11203;50.870;20.682;2023-03-03T03:36:13;-0.10;99.90
21762;DHT22;11203;50.870;20.682;2023-03-03T03:38:39;-0.10;99.90
21762;DHT22;11203;50.870;20.682;2023-03-03T03:41:06;0.00;99.90
21762;DHT22;11203;50.870;20.682;2023-03-03T03:43:33;-0.10;99.90
21762;DHT22;11203;50.870;20.682;2023-03-03T03:45:59;-0.10;99.90
21762;DHT22;11203;50.870;20.682;2023-03-03T03:48:25;-0.10;99.90
21762;DHT22;11203;50.870;20.682;2023-03-03T03:50:51;-0.10;99.90
21762;DHT22;11203;50.870;20.682;2023-03-03T03:53:18;0.10;86.30
21762;DHT22;11203;50.870;20.682;2023-03-03T03:55:45;0.10;99.90
21762;DHT22;11203;50.870;20.682;2023-03-03T03:58:15;0.00;46.10
21762;DHT22;11203;50.870;20.682;2023-03-03T04:00:42;0.10;1.00
21762;DHT22;11203;50.870;20.682;2023-03-03T04:03:09;0.10;1.00
21762;DHT22;11203;50.870;20.682;2023-03-03T04:05:36;0.00;99.90
21762;DHT22;11203;50.870;20.682;2023-03-03T04:08:02;-0.10;1.00
21762;DHT22;11203;50.870;20.682;2023-03-03T04:10:29;-0.10;1.00
21762;DHT22;11203;50.870;20.682;2023-03-03T04:12:55;0.00;1.00
21762;DHT22;11203;50.870;20.682;2023-03-03T04:15:21;0.00;99.90
21762;DHT22;11203;50.870;20.682;2023-03-03T04:17:47;0.00;99.90
21762;DHT22;11203;50.870;20.682;2023-03-03T04:20:14;0.10;1.00
21762;DHT22;11203;50.870;20.682;2023-03-03T04:22:42;0.10;1.00
21762;DHT22;11203;50.870;20.682;2023-03-03T04:25:14;0.10;1.00
21762;DHT22;11203;50.870;20.682;2023-03-03T04:27:41;0.00;1.00
21762;DHT22;11203;50.870;20.682;2023-03-03T04:30:08;0.20;1.00
21762;DHT22;11203;50.870;20.682;2023-03-03T04:32:35;0.10;1.00
21762;DHT22;11203;50.870;20.682;2023-03-03T04:35:01;0.10;1.00
21762;DHT22;11203;50.870;20.682;2023-03-03T04:37:27;0.10;1.00
21762;DHT22;11203;50.870;20.682;2023-03-03T04:39:53;0.20;1.00
21762;DHT22;11203;50.870;20.682;2023-03-03T04:42:19;0.20;1.00
21762;DHT22;11203;50.870;20.682;2023-03-03T04:44:45;0.20;99.90
21762;DHT22;11203;50.870;20.682;2023-03-03T04:47:12;0.10;1.00
21762;DHT22;11203;50.870;20.682;2023-03-03T04:49:37;0.10;1.00
21762;DHT22;11203;50.870;20.682;2023-03-03T04:52:04;0.20;1.00
21762;DHT22;11203;50.870;20.682;2023-03-03T04:54:30;0.10;99.90
21762;DHT22;11203;50.870;20.682;2023-03-03T04:56:57;0.10;99.90
21762;DHT22;11203;50.870;20.682;2023-03-03T04:59:23;0.20;99.90
21762;DHT22;11203;50.870;20.682;2023-03-03T05:01:49;0.20;99.90
21762;DHT22;11203;50.870;20.682;2023-03-03T05:04:15;0.10;99.90
21762;DHT22;11203;50.870;20.682;2023-03-03T05:06:42;0.10;1.00
21762;DHT22;11203;50.870;20.682;2023-03-03T05:09:08;0.10;99.90
21762;DHT22;11203;50.870;20.682;2023-03-03T05:11:34;0.00;1.00
21762;DHT22;11203;50.870;20.682;2023-03-03T05:14:01;0.10;1.00
21762;DHT22;11203;50.870;20.682;2023-03-03T05:16:28;0.00;1.00
21762;DHT22;11203;50.870;20.682;2023-03-03T05:18:54;0.10;1.00
21762;DHT22;11203;50.870;20.682;2023-03-03T05:21:20;0.10;1.00
21762;DHT22;11203;50.870;20.682;2023-03-03T05:23:46;0.10;1.00
21762;DHT22;11203;50.870;20.682;2023-03-03T05:26:15;0.10;99.90
21762;DHT22;11203;50.870;20.682;2023-03-03T05:28:41;0.10;99.90
21762;DHT22;11203;50.870;20.682;2023-03-03T05:31:07;0.10;99.90
21762;DHT22;11203;50.870;20.682;2023-03-03T05:33:35;0.10;1.00
21762;DHT22;11203;50.870;20.682;2023-03-03T05:36:01;0.10;1.00
21762;DHT22;11203;50.870;20.682;2023-03-03T05:38:27;0.10;1.00
21762;DHT22;11203;50.870;20.682;2023-03-03T05:40:53;0.10;1.00
21762;DHT22;11203;50.870;20.682;2023-03-03T05:43:19;0.10;1.00
21762;DHT22;11203;50.870;20.682;2023-03-03T05:45:46;0.10;1.00
21762;DHT22;11203;50.870;20.682;2023-03-03T05:48:11;0.00;1.00
21762;DHT22;11203;50.870;20.682;2023-03-03T05:50:38;0.00;1.00
21762;DHT22;11203;50.870;20.682;2023-03-03T05:53:04;0.10;1.00
21762;DHT22;11203;50.870;20.682;2023-03-03T05:55:31;0.00;1.00
21762;DHT22;11203;50.870;20.682;2023-03-03T05:57:57;0.00;1.00
21762;DHT22;11203;50.870;20.682;2023-03-03T06:00:23;0.10;1.00
21762;DHT22;11203;50.870;20.682;2023-03-03T06:02:49;0.10;1.00
21762;DHT22;11203;50.870;20.682;2023-03-03T06:05:15;0.10;1.00
21762;DHT22;11203;50.870;20.682;2023-03-03T06:07:41;0.20;3.10
21762;DHT22;11203;50.870;20.682;2023-03-03T06:10:08;0.20;99.90
21762;DHT22;11203;50.870;20.682;2023-03-03T06:12:34;0.20;1.00
21762;DHT22;11203;50.870;20.682;2023-03-03T06:15:02;0.20;1.00
21762;DHT22;11203;50.870;20.682;2023-03-03T06:17:28;0.20;1.00
21762;DHT22;11203;50.870;20.682;2023-03-03T06:19:54;0.20;1.00
21762;DHT22;11203;50.870;20.682;2023-03-03T06:22:22;0.10;1.00
21762;DHT22;11203;50.870;20.682;2023-03-03T06:24:49;0.20;1.00
21762;DHT22;11203;50.870;20.682;2023-03-03T06:27:17;0.20;1.00
21762;DHT22;11203;50.870;20.682;2023-03-03T06:29:44;0.10;99.90
21762;DHT22;11203;50.870;20.682;2023-03-03T06:32:10;0.10;99.90
21762;DHT22;11203;50.870;20.682;2023-03-03T06:34:36;0.10;32.30
21762;DHT22;11203;50.870;20.682;2023-03-03T06:37:02;0.10;80.70
21762;DHT22;11203;50.870;20.682;2023-03-03T06:39:29;0.10;1.00
21762;DHT22;11203;50.870;20.682;2023-03-03T06:41:55;0.10;52.80
21762;DHT22;11203;50.870;20.682;2023-03-03T06:44:21;0.10;33.20
21762;DHT22;11203;50.870;20.682;2023-03-03T06:46:48;0.10;46.30
21762;DHT22;11203;50.870;20.682;2023-03-03T06:49:14;0.00;1.00
21762;DHT22;11203;50.870;20.682;2023-03-03T06:51:40;0.00;99.90
21762;DHT22;11203;50.870;20.682;2023-03-03T06:54:23;-0.10;1.00
21762;DHT22;11203;50.870;20.682;2023-03-03T06:57:00;0.00;99.90
21762;DHT22;11203;50.870;20.682;2023-03-03T06:59:41;0.00;99.90
21762;DHT22;11203;50.870;20.682;2023-03-03T07:02:15;0.10;99.90
21762;DHT22;11203;50.870;20.682;2023-03-03T07:04:43;0.10;99.90
21762;DHT22;11203;50.870;20.682;2023-03-03T07:07:24;0.10;1.00
21762;DHT22;11203;50.870;20.682;2023-03-03T07:09:53;0.20;1.00
21762;DHT22;11203;50.870;20.682;2023-03-03T07:12:23;0.10;1.00
21762;DHT22;11203;50.870;20.682;2023-03-03T07:15:01;0.10;1.00
21762;DHT22;11203;50.870;20.682;2023-03-03T07:17:47;0.20;99.90
21762;DHT22;11203;50.870;20.682;2023-03-03T07:22:48;0.20;1.00
21762;DHT22;11203;50.870;20.682;2023-03-03T07:25:31;0.20;1.00
21762;DHT22;11203;50.870;20.682;2023-03-03T07:30:54;0.30;1.00
21762;DHT22;11203;50.870;20.682;2023-03-03T07:33:43;0.30;1.00
21762;DHT22;11203;50.870;20.682;2023-03-03T07:36:30;0.20;1.00
21762;DHT22;11203;50.870;20.682;2023-03-03T07:39:13;0.30;1.00
21762;DHT22;11203;50.870;20.682;2023-03-03T07:41:43;0.20;1.00
21762;DHT22;11203;50.870;20.682;2023-03-03T07:44:20;0.20;1.00
21762;DHT22;11203;50.870;20.682;2023-03-03T07:46:48;0.30;1.00
21762;DHT22;11203;50.870;20.682;2023-03-03T07:54:45;0.20;1.00
21762;DHT22;11203;50.870;20.682;2023-03-03T07:59:59;0.30;1.00
21762;DHT22;11203;50.870;20.682;2023-03-03T08:02:40;0.20;1.00
21762;DHT22;11203;50.870;20.682;2023-03-03T08:07:49;0.20;1.00
21762;DHT22;11203;50.870;20.682;2023-03-03T08:16:03;0.20;1.00
21762;DHT22;11203;50.870;20.682;2023-03-03T08:18:48;0.20;1.00
21762;DHT22;11203;50.870;20.682;2023-03-03T08:21:17;0.20;1.00
21762;DHT22;11203;50.870;20.682;2023-03-03T08:23:44;0.20;1.00
21762;DHT22;11203;50.870;20.682;2023-03-03T08:38:26;0.10;99.90
21762;DHT22;11203;50.870;20.682;2023-03-03T08:40:52;0.10;99.90
21762;DHT22;11203;50.870;20.682;2023-03-03T08:43:18;0.10;1.00
21762;DHT22;11203;50.870;20.682;2023-03-03T08:45:49;0.00;1.00
21762;DHT22;11203;50.870;20.682;2023-03-03T08:48:16;0.00;99.90
21762;DHT22;11203;50.870;20.682;2023-03-03T08:50:43;0.10;1.00
21762;DHT22;11203;50.870;20.682;2023-03-03T08:53:10;0.10;99.90
21762;DHT22;11203;50.870;20.682;2023-03-03T08:55:37;0.20;94.40
21762;DHT22;11203;50.870;20.682;2023-03-03T08:58:04;0.20;1.00
21762;DHT22;11203;50.870;20.682;2023-03-03T09:00:30;0.10;1.00
21762;DHT22;11203;50.870;20.682;2023-03-03T09:02:56;0.20;1.00
21762;DHT22;11203;50.870;20.682;2023-03-03T09:05:25;0.30;1.00
21762;DHT22;11203;50.870;20.682;2023-03-03T09:07:53;0.30;99.90
21762;DHT22;11203;50.870;20.682;2023-03-03T09:10:23;0.20;7.10
21762;DHT22;11203;50.870;20.682;2023-03-03T09:12:54;0.20;1.00
21762;DHT22;11203;50.870;20.682;2023-03-03T09:18:30;0.20;1.00
21762;DHT22;11203;50.870;20.682;2023-03-03T09:21:01;0.20;1.00
21762;DHT22;11203;50.870;20.682;2023-03-03T09:23:37;0.30;1.00
21762;DHT22;11203;50.870;20.682;2023-03-03T09:28:58;0.30;1.00
21762;DHT22;11203;50.870;20.682;2023-03-03T09:31:58;0.40;1.00
21762;DHT22;11203;50.870;20.682;2023-03-03T09:37:19;0.40;1.00
21762;DHT22;11203;50.870;20.682;2023-03-03T09:39:49;0.50;68.00
21762;DHT22;11203;50.870;20.682;2023-03-03T09:42:38;0.40;99.90
21762;DHT22;11203;50.870;20.682;2023-03-03T09:45:30;0.50;38.40
21762;DHT22;11203;50.870;20.682;2023-03-03T09:51:08;0.60;1.00
21762;DHT22;11203;50.870;20.682;2023-03-03T09:56:37;0.80;99.90
21762;DHT22;11203;50.870;20.682;2023-03-03T10:04:57;0.80;99.90
21762;DHT22;11203;50.870;20.682;2023-03-03T10:08:16;0.80;1.00
21762;DHT22;11203;50.870;20.682;2023-03-03T10:19:57;1.20;1.00
21762;DHT22;11203;50.870;20.682;2023-03-03T10:26:02;1.20;99.90
21762;DHT22;11203;50.870;20.682;2023-03-03T10:40:34;1.20;1.00
21762;DHT22;11203;50.870;20.682;2023-03-03T10:43:16;1.30;99.90
21762;DHT22;11203;50.870;20.682;2023-03-03T10:45:54;1.20;1.00
21762;DHT22;11203;50.870;20.682;2023-03-03T11:06:39;1.50;99.90
21762;DHT22;11203;50.870;20.682;2023-03-03T11:15:20;1.50;99.90
21762;DHT22;11203;50.870;20.682;2023-03-03T11:21:25;1.80;1.00
21762;DHT22;11203;50.870;20.682;2023-03-03T11:24:24;1.80;1.00
21762;DHT22;11203;50.870;20.682;2023-03-03T11:27:04;2.10;1.00
21762;DHT22;11203;50.870;20.682;2023-03-03T11:33:19;2.30;1.00
21762;DHT22;11203;50.870;20.682;2023-03-03T11:38:56;2.30;99.90
21762;DHT22;11203;50.870;20.682;2023-03-03T11:41:40;2.10;99.90
21762;DHT22;11203;50.870;20.682;2023-03-03T11:44:38;2.10;99.90
21762;DHT22;11203;50.870;20.682;2023-03-03T11:47:37;2.20;99.90
21762;DHT22;11203;50.870;20.682;2023-03-03T11:50:13;2.20;99.90
21762;DHT22;11203;50.870;20.682;2023-03-03T11:56:12;2.60;99.90
21762;DHT22;11203;50.870;20.682;2023-03-03T11:58:48;2.70;99.90
21762;DHT22;11203;50.870;20.682;2023-03-03T12:01:41;2.80;99.90
21762;DHT22;11203;50.870;20.682;2023-03-03T12:04:13;2.70;99.90
21762;DHT22;11203;50.870;20.682;2023-03-03T12:10:07;2.60;25.10
21762;DHT22;11203;50.870;20.682;2023-03-03T12:13:02;2.60;29.60
21762;DHT22;11203;50.870;20.682;2023-03-03T12:18:54;2.70;99.90
21762;DHT22;11203;50.870;20.682;2023-03-03T12:24:33;3.10;1.00
21762;DHT22;11203;50.870;20.682;2023-03-03T12:42:12;3.20;1.00
21762;DHT22;11203;50.870;20.682;2023-03-03T12:47:52;3.10;1.00
21762;DHT22;11203;50.870;20.682;2023-03-03T13:01:45;2.80;1.00
21762;DHT22;11203;50.870;20.682;2023-03-03T13:16:10;2.90;1.00
21762;DHT22;11203;50.870;20.682;2023-03-03T13:24:17;2.80;1.00
21762;DHT22;11203;50.870;20.682;2023-03-03T13:27:23;2.70;1.00
21762;DHT22;11203;50.870;20.682;2023-03-03T13:35:40;2.70;1.00
21762;DHT22;11203;50.870;20.682;2023-03-03T13:38:24;2.70;1.00
21762;DHT22;11203;50.870;20.682;2023-03-03T13:44:10;2.60;1.00
21762;DHT22;11203;50.870;20.682;2023-03-03T13:50:19;2.70;1.00
21762;DHT22;11203;50.870;20.682;2023-03-03T13:52:52;2.70;1.00
21762;DHT22;11203;50.870;20.682;2023-03-03T13:55:44;2.70;1.00
21762;DHT22;11203;50.870;20.682;2023-03-03T14:04:31;2.70;1.00
21762;DHT22;11203;50.870;20.682;2023-03-03T14:07:10;2.70;1.00
21762;DHT22;11203;50.870;20.682;2023-03-03T14:21:00;2.30;1.00
21762;DHT22;11203;50.870;20.682;2023-03-03T14:23:50;2.20;99.90
21762;DHT22;11203;50.870;20.682;2023-03-03T14:26:22;2.30;1.00
21762;DHT22;11203;50.870;20.682;2023-03-03T14:28:49;2.20;1.00
21762;DHT22;11203;50.870;20.682;2023-03-03T14:31:37;2.20;1.40
21762;DHT22;11203;50.870;20.682;2023-03-03T14:45:40;2.00;99.90
21762;DHT22;11203;50.870;20.682;2023-03-03T14:48:14;2.00;1.00
21762;DHT22;11203;50.870;20.682;2023-03-03T14:50:50;2.00;99.90
21762;DHT22;11203;50.870;20.682;2023-03-03T14:53:36;1.90;99.90
21762;DHT22;11203;50.870;20.682;2023-03-03T14:56:33;1.70;99.90
21762;DHT22;11203;50.870;20.682;2023-03-03T15:01:40;1.60;1.00
21762;DHT22;11203;50.870;20.682;2023-03-03T15:04:23;1.50;44.40
21762;DHT22;11203;50.870;20.682;2023-03-03T15:06:53;1.40;1.00
21762;DHT22;11203;50.870;20.682;2023-03-03T15:09:32;1.30;1.00
21762;DHT22;11203;50.870;20.682;2023-03-03T15:12:02;1.30;1.00
21762;DHT22;11203;50.870;20.682;2023-03-03T15:14:48;1.30;99.90
21762;DHT22;11203;50.870;20.682;2023-03-03T15:17:42;1.20;1.00
21762;DHT22;11203;50.870;20.682;2023-03-03T15:29:15;1.20;99.90
21762;DHT22;11203;50.870;20.682;2023-03-03T15:31:59;1.20;99.90
21762;DHT22;11203;50.870;20.682;2023-03-03T15:34:53;1.10;1.00
21762;DHT22;11203;50.870;20.682;2023-03-03T15:42:42;1.10;1.00
21762;DHT22;11203;50.870;20.682;2023-03-03T16:00:35;1.00;99.90
21762;DHT22;11203;50.870;20.682;2023-03-03T16:03:13;1.00;1.00
21762;DHT22;11203;50.870;20.682;2023-03-03T16:14:40;1.00;99.90
21762;DHT22;11203;50.870;20.682;2023-03-03T16:23:59;0.90;70.70
21762;DHT22;11203;50.870;20.682;2023-03-03T16:26:29;0.90;99.90
21762;DHT22;11203;50.870;20.682;2023-03-03T16:29:10;0.90;99.90
21762;DHT22;11203;50.870;20.682;2023-03-03T16:32:01;0.90;99.90
21762;DHT22;11203;50.870;20.682;2023-03-03T16:38:02;0.90;54.50
21762;DHT22;11203;50.870;20.682;2023-03-03T16:43:23;0.90;99.90
21762;DHT22;11203;50.870;20.682;2023-03-03T16:45:58;0.90;99.90
21762;DHT22;11203;50.870;20.682;2023-03-03T16:48:44;1.00;99.90
21762;DHT22;11203;50.870;20.682;2023-03-03T16:51:38;0.90;99.90
21762;DHT22;11203;50.870;20.682;2023-03-03T16:57:49;0.90;99.90
21762;DHT22;11203;50.870;20.682;2023-03-03T17:00:29;1.00;99.90
21762;DHT22;11203;50.870;20.682;2023-03-03T17:03:17;1.00;8.40
21762;DHT22;11203;50.870;20.682;2023-03-03T17:18:02;1.00;1.00
21762;DHT22;11203;50.870;20.682;2023-03-03T17:20:54;1.00;99.90
21762;DHT22;11203;50.870;20.682;2023-03-03T17:27:01;1.00;99.90
21762;DHT22;11203;50.870;20.682;2023-03-03T17:29:46;1.10;99.90
21762;DHT22;11203;50.870;20.682;2023-03-03T17:32:28;1.00;99.90
21762;DHT22;11203;50.870;20.682;2023-03-03T17:35:22;1.00;99.90
21762;DHT22;11203;50.870;20.682;2023-03-03T17:46:31;1.00;99.90
21762;DHT22;11203;50.870;20.682;2023-03-03T18:09:49;0.90;1.00
21762;DHT22;11203;50.870;20.682;2023-03-03T18:19:05;0.80;1.00
21762;DHT22;11203;50.870;20.682;2023-03-03T18:35:32;0.70;1.00
21762;DHT22;11203;50.870;20.682;2023-03-03T18:40:52;0.90;1.00
21762;DHT22;11203;50.870;20.682;2023-03-03T18:49:00;0.70;1.00
21762;DHT22;11203;50.870;20.682;2023-03-03T18:59:38;0.70;1.00
21762;DHT22;11203;50.870;20.682;2023-03-03T19:09:46;0.60;6.30
21762;DHT22;11203;50.870;20.682;2023-03-03T19:12:17;0.60;10.60
21762;DHT22;11203;50.870;20.682;2023-03-03T19:14:47;0.70;1.00
21762;DHT22;11203;50.870;20.682;2023-03-03T19:23:01;0.80;1.00
21762;DHT22;11203;50.870;20.682;2023-03-03T19:25:32;0.70;98.20
21762;DHT22;11203;50.870;20.682;2023-03-03T19:33:54;0.70;99.90
21762;DHT22;11203;50.870;20.682;2023-03-03T19:36:43;0.70;99.90
21762;DHT22;11203;50.870;20.682;2023-03-03T19:39:41;0.70;99.90
21762;DHT22;11203;50.870;20.682;2023-03-03T19:47:59;0.60;1.00
21762;DHT22;11203;50.870;20.682;2023-03-03T19:59:11;0.60;1.00
21762;DHT22;11203;50.870;20.682;2023-03-03T20:16:35;0.50;1.00
21762;DHT22;11203;50.870;20.682;2023-03-03T20:30:44;0.50;99.90
21762;DHT22;11203;50.870;20.682;2023-03-03T20:33:31;0.60;1.00
21762;DHT22;11203;50.870;20.682;2023-03-03T20:36:11;0.50;99.90
21762;DHT22;11203;50.870;20.682;2023-03-03T20:38:52;0.50;99.90
21762;DHT22;11203;50.870;20.682;2023-03-03T20:44:18;0.50;1.00
21762;DHT22;11203;50.870;20.682;2023-03-03T20:47:22;0.40;1.00
21762;DHT22;11203;50.870;20.682;2023-03-03T20:56:16;0.40;99.90
21762;DHT22;11203;50.870;20.682;2023-03-03T21:00:06;0.30;99.90
21762;DHT22;11203;50.870;20.682;2023-03-03T21:02:29;0.30;1.00
21762;DHT22;11203;50.870;20.682;2023-03-03T21:05:08;0.30;1.00
21762;DHT22;11203;50.870;20.682;2023-03-03T21:07:36;0.30;77.20
21762;DHT22;11203;50.870;20.682;2023-03-03T21:10:16;0.20;99.90
21762;DHT22;11203;50.870;20.682;2023-03-03T21:12:50;0.20;99.90
21762;DHT22;11203;50.870;20.682;2023-03-03T21:15:32;0.20;99.90
21762;DHT22;11203;50.870;20.682;2023-03-03T21:18:20;0.20;1.00
21762;DHT22;11203;50.870;20.682;2023-03-03T21:20:48;0.20;1.00
21762;DHT22;11203;50.870;20.682;2023-03-03T21:23:15;0.10;1.00
21762;DHT22;11203;50.870;20.682;2023-03-03T21:25:51;0.10;1.00
21762;DHT22;11203;50.870;20.682;2023-03-03T21:37:02;0.00;99.90
21762;DHT22;11203;50.870;20.682;2023-03-03T21:39:28;-0.10;31.30
21762;DHT22;11203;50.870;20.682;2023-03-03T21:41:58;0.00;1.00
21762;DHT22;11203;50.870;20.682;2023-03-03T21:44:46;0.00;1.00
21762;DHT22;11203;50.870;20.682;2023-03-03T21:47:22;0.00;1.00
21762;DHT22;11203;50.870;20.682;2023-03-03T21:49:51;0.00;1.00
21762;DHT22;11203;50.870;20.682;2023-03-03T21:52:19;0.00;61.40
21762;DHT22;11203;50.870;20.682;2023-03-03T21:54:48;0.00;31.20
21762;DHT22;11203;50.870;20.682;2023-03-03T21:57:15;0.00;21.60
21762;DHT22;11203;50.870;20.682;2023-03-03T21:59:41;0.00;16.60
21762;DHT22;11203;50.870;20.682;2023-03-03T22:02:08;0.00;84.60
21762;DHT22;11203;50.870;20.682;2023-03-03T22:04:35;0.10;99.90
21762;DHT22;11203;50.870;20.682;2023-03-03T22:07:03;0.10;99.90
21762;DHT22;11203;50.870;20.682;2023-03-03T22:09:29;0.10;99.90
21762;DHT22;11203;50.870;20.682;2023-03-03T22:11:55;0.10;1.00
21762;DHT22;11203;50.870;20.682;2023-03-03T22:14:21;0.00;99.90
21762;DHT22;11203;50.870;20.682;2023-03-03T22:16:47;0.10;99.90
21762;DHT22;11203;50.870;20.682;2023-03-03T22:19:14;0.00;99.90
21762;DHT22;11203;50.870;20.682;2023-03-03T22:21:40;-0.10;99.90
21762;DHT22;11203;50.870;20.682;2023-03-03T22:24:06;0.00;1.00
21762;DHT22;11203;50.870;20.682;2023-03-03T22:26:33;-0.10;1.00
21762;DHT22;11203;50.870;20.682;2023-03-03T22:29:00;-0.10;99.90
21762;DHT22;11203;50.870;20.682;2023-03-03T22:31:26;0.00;99.90
21762;DHT22;11203;50.870;20.682;2023-03-03T22:33:52;-0.10;26.30
21762;DHT22;11203;50.870;20.682;2023-03-03T22:36:18;-0.10;99.90
21762;DHT22;11203;50.870;20.682;2023-03-03T22:38:45;-0.10;99.90
21762;DHT22;11203;50.870;20.682;2023-03-03T22:41:12;-0.10;20.60
21762;DHT22;11203;50.870;20.682;2023-03-03T22:43:38;-0.10;35.20
21762;DHT22;11203;50.870;20.682;2023-03-03T22:46:05;-0.10;2.40
21762;DHT22;11203;50.870;20.682;2023-03-03T22:48:31;-0.10;40.70
21762;DHT22;11203;50.870;20.682;2023-03-03T22:50:57;-0.10;58.00
21762;DHT22;11203;50.870;20.682;2023-03-03T22:53:24;-0.20;99.90
21762;DHT22;11203;50.870;20.682;2023-03-03T22:55:51;-0.10;99.90
21762;DHT22;11203;50.870;20.682;2023-03-03T22:58:18;-0.10;99.90
21762;DHT22;11203;50.870;20.682;2023-03-03T23:00:46;-0.10;99.90
21762;DHT22;11203;50.870;20.682;2023-03-03T23:03:14;-0.10;99.90
21762;DHT22;11203;50.870;20.682;2023-03-03T23:05:41;-0.10;99.90
21762;DHT22;11203;50.870;20.682;2023-03-03T23:08:10;-0.10;99.90
21762;DHT22;11203;50.870;20.682;2023-03-03T23:10:38;-0.10;99.90
21762;DHT22;11203;50.870;20.682;2023-03-03T23:13:04;-0.10;99.90
21762;DHT22;11203;50.870;20.682;2023-03-03T23:15:30;-0.20;1.00
21762;DHT22;11203;50.870;20.682;2023-03-03T23:17:57;-0.10;99.90
21762;DHT22;11203;50.870;20.682;2023-03-03T23:20:25;-0.10;99.90
21762;DHT22;11203;50.870;20.682;2023-03-03T23:22:53;-0.10;99.90
21762;DHT22;11203;50.870;20.682;2023-03-03T23:25:20;-0.10;99.90
21762;DHT22;11203;50.870;20.682;2023-03-03T23:27:50;-0.10;99.90
21762;DHT22;11203;50.870;20.682;2023-03-03T23:30:18;-0.10;99.90
21762;DHT22;11203;50.870;20.682;2023-03-03T23:32:46;-0.10;99.90
21762;DHT22;11203;50.870;20.682;2023-03-03T23:35:12;-0.10;99.90
21762;DHT22;11203;50.870;20.682;2023-03-03T23:37:39;-0.10;99.90
21762;DHT22;11203;50.870;20.682;2023-03-03T23:40:07;-0.10;99.90